ADDS TAF Board (Experimental) INFO Settings

IDs: Format: Expanded Condensed

KPHL - Philadelphia Intl, PA, US

Issued at 1742 UTC 28 Apr 2015
Updated at: 1949 UTC 28 Apr 2015
Time1854Z 28/20Z 28/21Z 28/22Z 28/23Z 29/00Z 29/01Z 29/02Z 29/03Z 29/04Z 29/05Z 29/06Z 29/07Z 29/08Z
Type OBS PRVL PRVL PRVL PRVL PRVL PRVL PRVL PRVL PRVL PRVL PRVL PRVL PRVL
VIS 10 >6 >6 >6 >6 >6 >6 >6 >6 >6 >6 >6 >6 >6
CIG -- -- -- -- -- -- -- -- -- -- -- -- -- --
Cover SCT SCT SCT SCT FEW FEW FEW SKC SKC SKC SKC SKC SKC SKC
FltCat VFR VFR VFR VFR VFR VFR VFR VFR VFR VFR VFR VFR VFR VFR
WX -- -- -- -- -- -- -- -- -- -- -- -- -- --
WDir 350 330 330 330 320 320 320 310 310 310 310 310 310 310
WSpd 16 12 12 12 10 10 10 6 6 6 6 6 6 6
WGst 21 22 22 22 -- -- -- -- -- -- -- -- -- --
R08/26
XWnd 16 12 12 12 9 9 9 5 5 5 5 5 5 5
XGst 21 21 21 21 -- -- -- -- -- -- -- -- -- --
HWnd 1 -3 -3 -3 -4 -4 -4 -3 -3 -3 -3 -3 -3 -3
HGst 2 -6 -6 -6 -- -- -- -- -- -- -- -- -- --
R09/27
XWnd 16 12 12 12 9 9 9 5 5 5 5 5 5 5
XGst 21 21 21 21 -- -- -- -- -- -- -- -- -- --
HWnd 1 -3 -3 -3 -4 -4 -4 -3 -3 -3 -3 -3 -3 -3
HGst 2 -6 -6 -6 -- -- -- -- -- -- -- -- -- --
R17/35
XWnd 3 -2 -2 -2 -3 -3 -3 -3 -3 -3 -3 -3 -3 -3
XGst 4 -3 -3 -3 -- -- -- -- -- -- -- -- -- --
HWnd -16 -12 -12 -12 -9 -9 -9 -5 -5 -5 -5 -5 -5 -5
HGst -21 -22 -22 -22 -- -- -- -- -- -- -- -- -- --

NOTE: TEMPO conditions in [brackets]. Keep in mind TEMPO conditions might be better (lower impact) than prevailing conditions.

Raw TAF
KPHL 281742Z 2818/2924 33012G22KT P6SM SCT050
  FM282300 32010KT P6SM FEW050
  FM290200 31006KT P6SM SKC
  FM291400 30008KT P6SM SCT050


Raw METAR
KPHL 281854Z 35016G21KT 10SM SCT075 21/03 A2979 RMK AO2 PK WND 30026/1824 SLP088 T02060028
KPHL 281754Z 33018KT 10SM SCT065 19/02 A2981 RMK AO2 PK WND 02026/1720 SLP095 T01890022 10200 20122 58016
KPHL 281654Z 33014G25KT 10SM SCT055 19/03 A2983 RMK AO2 SLP100 T01890033

METAR Board
Radar Display
Forecast Discussion

TAF Board Legend

Potential Impact
Threat None Slight Moderate High
Visibility (sm) ≥5.1 5.1>X≥3 3>X≥1 <1
Ceiling (100 ft) ≥30.1 30.1>X≥10 10>X≥5 <5
Wind Speed (kt) <10 10≤X<20 20≤X<30 ≥30
Wind Gust (kt) <15 15≤X<25 25≤X<35 ≥35
Weather No Wx Reported VCTS,-TS,-FZRA,SN TS,FZRA +TS,+FZRA,+SN